Terminal Aerodrome Forecast
Issued by NWS

Home | Current Version | Previous Version | Graphics & Text | Print | Product List | Glossary On
Versions: 1 2 3 4 5 6 7 8 9 10 11 12 13 14 15 16 17 18 19 20 21 22 23 24
000
FTUS45 KGGW 271121
TAFOLF
TAF
KOLF 271121Z 2712/2812 VRB05KT P6SM BKN090
     FM271300 08010KT P6SM VCSH OVC060
     FM272000 09010KT P6SM BKN060
     FM280300 06009KT P6SM BKN040
     FM280900 05008KT P6SM BKN026=

USA.gov is the U.S. government's official web portal to all federal, state and local government web resources and services.